sensor_id;sensor_type;location;lat;lon;timestamp;temperature;humidity
31263;DHT22;17892;52.080;9.006;2022-12-18T00:01:44;-3.00;94.80
31263;DHT22;17892;52.080;9.006;2022-12-18T00:04:36;-3.00;95.00
31263;DHT22;17892;52.080;9.006;2022-12-18T00:07:02;-3.00;94.70
31263;DHT22;17892;52.080;9.006;2022-12-18T00:09:28;-3.00;95.10
31263;DHT22;17892;52.080;9.006;2022-12-18T00:11:54;-3.00;95.30
31263;DHT22;17892;52.080;9.006;2022-12-18T00:14:19;-2.90;95.10
31263;DHT22;17892;52.080;9.006;2022-12-18T00:16:46;-3.00;95.30
31263;DHT22;17892;52.080;9.006;2022-12-18T00:19:13;-3.00;95.20
31263;DHT22;17892;52.080;9.006;2022-12-18T00:21:40;-3.00;95.20
31263;DHT22;17892;52.080;9.006;2022-12-18T00:24:07;-3.00;95.50
31263;DHT22;17892;52.080;9.006;2022-12-18T00:26:33;-3.00;95.50
31263;DHT22;17892;52.080;9.006;2022-12-18T00:29:02;-3.00;95.50
31263;DHT22;17892;52.080;9.006;2022-12-18T00:31:30;-3.00;95.40
31263;DHT22;17892;52.080;9.006;2022-12-18T00:33:57;-3.00;95.20
31263;DHT22;17892;52.080;9.006;2022-12-18T00:36:29;-3.00;95.20
31263;DHT22;17892;52.080;9.006;2022-12-18T00:38:58;-3.00;94.70
31263;DHT22;17892;52.080;9.006;2022-12-18T00:41:25;-3.00;95.00
31263;DHT22;17892;52.080;9.006;2022-12-18T00:44:12;-3.00;94.50
31263;DHT22;17892;52.080;9.006;2022-12-18T00:46:38;-3.00;95.30
31263;DHT22;17892;52.080;9.006;2022-12-18T00:49:05;-3.00;95.30
31263;DHT22;17892;52.080;9.006;2022-12-18T00:51:31;-3.00;95.10
31263;DHT22;17892;52.080;9.006;2022-12-18T00:53:56;-2.90;95.20
31263;DHT22;17892;52.080;9.006;2022-12-18T00:56:23;-2.90;94.90
31263;DHT22;17892;52.080;9.006;2022-12-18T00:58:48;-2.90;94.90
31263;DHT22;17892;52.080;9.006;2022-12-18T01:01:14;-2.90;94.90
31263;DHT22;17892;52.080;9.006;2022-12-18T01:03:40;-2.90;95.00
31263;DHT22;17892;52.080;9.006;2022-12-18T01:06:07;-3.00;94.80
31263;DHT22;17892;52.080;9.006;2022-12-18T01:08:35;-3.00;95.00
31263;DHT22;17892;52.080;9.006;2022-12-18T01:11:11;-3.00;94.80
31263;DHT22;17892;52.080;9.006;2022-12-18T01:13:39;-3.00;94.70
31263;DHT22;17892;52.080;9.006;2022-12-18T01:16:05;-3.00;94.40
31263;DHT22;17892;52.080;9.006;2022-12-18T01:18:31;-3.10;94.50
31263;DHT22;17892;52.080;9.006;2022-12-18T01:20:57;-3.10;94.40
31263;DHT22;17892;52.080;9.006;2022-12-18T01:23:26;-3.20;94.80
31263;DHT22;17892;52.080;9.006;2022-12-18T01:25:52;-3.20;94.70
31263;DHT22;17892;52.080;9.006;2022-12-18T01:28:18;-3.20;94.60
31263;DHT22;17892;52.080;9.006;2022-12-18T01:30:43;-3.20;95.10
31263;DHT22;17892;52.080;9.006;2022-12-18T01:33:09;-3.20;94.90
31263;DHT22;17892;52.080;9.006;2022-12-18T01:35:40;-3.20;95.00
31263;DHT22;17892;52.080;9.006;2022-12-18T01:38:07;-3.20;94.80
31263;DHT22;17892;52.080;9.006;2022-12-18T01:40:33;-3.20;95.10
31263;DHT22;17892;52.080;9.006;2022-12-18T01:42:59;-3.20;95.20
31263;DHT22;17892;52.080;9.006;2022-12-18T01:45:27;-3.20;95.50
31263;DHT22;17892;52.080;9.006;2022-12-18T01:47:55;-3.20;95.30
31263;DHT22;17892;52.080;9.006;2022-12-18T01:50:40;-3.20;95.10
31263;DHT22;17892;52.080;9.006;2022-12-18T01:53:14;-3.10;95.20
31263;DHT22;17892;52.080;9.006;2022-12-18T01:55:47;-3.10;95.10
31263;DHT22;17892;52.080;9.006;2022-12-18T01:58:16;-3.10;95.20
31263;DHT22;17892;52.080;9.006;2022-12-18T02:00:43;-3.10;94.60
31263;DHT22;17892;52.080;9.006;2022-12-18T02:03:09;-3.10;94.90
31263;DHT22;17892;52.080;9.006;2022-12-18T02:06:01;-3.10;95.10
31263;DHT22;17892;52.080;9.006;2022-12-18T02:08:50;-3.10;94.70
31263;DHT22;17892;52.080;9.006;2022-12-18T02:22:36;-3.20;94.50
31263;DHT22;17892;52.080;9.006;2022-12-18T02:28:13;-3.10;94.70
31263;DHT22;17892;52.080;9.006;2022-12-18T02:30:42;-3.10;95.10
31263;DHT22;17892;52.080;9.006;2022-12-18T02:33:11;-3.10;95.20
31263;DHT22;17892;52.080;9.006;2022-12-18T02:35:38;-3.10;95.30
31263;DHT22;17892;52.080;9.006;2022-12-18T02:38:06;-3.10;94.50
31263;DHT22;17892;52.080;9.006;2022-12-18T02:40:32;-3.10;94.60
31263;DHT22;17892;52.080;9.006;2022-12-18T02:43:12;-3.00;95.20
31263;DHT22;17892;52.080;9.006;2022-12-18T02:45:53;-3.00;95.10
31263;DHT22;17892;52.080;9.006;2022-12-18T02:48:29;-3.00;95.10
31263;DHT22;17892;52.080;9.006;2022-12-18T02:51:17;-3.00;95.00
31263;DHT22;17892;52.080;9.006;2022-12-18T02:54:21;-3.00;95.30
31263;DHT22;17892;52.080;9.006;2022-12-18T02:56:58;-3.00;95.10
31263;DHT22;17892;52.080;9.006;2022-12-18T02:59:39;-3.10;95.30
31263;DHT22;17892;52.080;9.006;2022-12-18T03:02:21;-3.10;95.20
31263;DHT22;17892;52.080;9.006;2022-12-18T03:05:04;-3.10;95.30
31263;DHT22;17892;52.080;9.006;2022-12-18T03:08:15;-3.10;95.20
31263;DHT22;17892;52.080;9.006;2022-12-18T03:11:03;-3.10;95.30
31263;DHT22;17892;52.080;9.006;2022-12-18T03:16:00;-3.20;95.50
31263;DHT22;17892;52.080;9.006;2022-12-18T03:18:33;-3.20;94.80
31263;DHT22;17892;52.080;9.006;2022-12-18T03:21:05;-3.20;95.30
31263;DHT22;17892;52.080;9.006;2022-12-18T03:23:40;-3.20;95.40
31263;DHT22;17892;52.080;9.006;2022-12-18T03:26:12;-3.30;95.30
31263;DHT22;17892;52.080;9.006;2022-12-18T03:28:47;-3.30;95.40
31263;DHT22;17892;52.080;9.006;2022-12-18T03:31:20;-3.30;95.40
31263;DHT22;17892;52.080;9.006;2022-12-18T03:33:53;-3.40;95.40
31263;DHT22;17892;52.080;9.006;2022-12-18T03:36:20;-3.40;94.80
31263;DHT22;17892;52.080;9.006;2022-12-18T03:38:46;-3.40;95.30
31263;DHT22;17892;52.080;9.006;2022-12-18T03:41:19;-3.50;95.30
31263;DHT22;17892;52.080;9.006;2022-12-18T03:49:40;-3.50;95.70
31263;DHT22;17892;52.080;9.006;2022-12-18T03:52:17;-3.50;95.70
31263;DHT22;17892;52.080;9.006;2022-12-18T03:54:46;-3.50;95.60
31263;DHT22;17892;52.080;9.006;2022-12-18T03:57:18;-3.50;95.90
31263;DHT22;17892;52.080;9.006;2022-12-18T03:59:48;-3.40;95.90
31263;DHT22;17892;52.080;9.006;2022-12-18T04:02:17;-3.40;95.80
31263;DHT22;17892;52.080;9.006;2022-12-18T04:04:44;-3.30;95.80
31263;DHT22;17892;52.080;9.006;2022-12-18T04:07:13;-3.30;95.60
31263;DHT22;17892;52.080;9.006;2022-12-18T04:09:41;-3.30;95.60
31263;DHT22;17892;52.080;9.006;2022-12-18T04:12:09;-3.30;95.80
31263;DHT22;17892;52.080;9.006;2022-12-18T04:14:34;-3.30;95.70
31263;DHT22;17892;52.080;9.006;2022-12-18T04:17:01;-3.30;95.80
31263;DHT22;17892;52.080;9.006;2022-12-18T04:19:27;-3.20;95.70
31263;DHT22;17892;52.080;9.006;2022-12-18T04:21:53;-3.20;95.30
31263;DHT22;17892;52.080;9.006;2022-12-18T04:24:19;-3.20;95.50
31263;DHT22;17892;52.080;9.006;2022-12-18T04:26:45;-3.20;96.00
31263;DHT22;17892;52.080;9.006;2022-12-18T04:29:11;-3.10;96.10
31263;DHT22;17892;52.080;9.006;2022-12-18T04:31:37;-3.10;95.80
31263;DHT22;17892;52.080;9.006;2022-12-18T04:34:03;-3.00;96.00
31263;DHT22;17892;52.080;9.006;2022-12-18T04:36:29;-3.00;96.00
31263;DHT22;17892;52.080;9.006;2022-12-18T04:38:55;-3.00;96.00
31263;DHT22;17892;52.080;9.006;2022-12-18T04:41:21;-3.00;95.70
31263;DHT22;17892;52.080;9.006;2022-12-18T04:43:46;-2.90;96.00
31263;DHT22;17892;52.080;9.006;2022-12-18T04:46:12;-2.90;95.90
31263;DHT22;17892;52.080;9.006;2022-12-18T04:48:38;-2.90;95.80
31263;DHT22;17892;52.080;9.006;2022-12-18T04:51:05;-2.90;95.90
31263;DHT22;17892;52.080;9.006;2022-12-18T04:53:31;-2.90;96.00
31263;DHT22;17892;52.080;9.006;2022-12-18T04:56:05;-2.90;95.90
31263;DHT22;17892;52.080;9.006;2022-12-18T04:58:32;-2.80;95.80
31263;DHT22;17892;52.080;9.006;2022-12-18T05:00:58;-2.90;96.00
31263;DHT22;17892;52.080;9.006;2022-12-18T05:03:23;-2.80;96.00
31263;DHT22;17892;52.080;9.006;2022-12-18T05:05:50;-2.80;96.00
31263;DHT22;17892;52.080;9.006;2022-12-18T05:08:17;-2.90;96.00
31263;DHT22;17892;52.080;9.006;2022-12-18T05:10:42;-2.80;95.80
31263;DHT22;17892;52.080;9.006;2022-12-18T05:13:09;-2.80;96.00
31263;DHT22;17892;52.080;9.006;2022-12-18T05:15:34;-2.70;95.60
31263;DHT22;17892;52.080;9.006;2022-12-18T05:18:01;-2.70;95.60
31263;DHT22;17892;52.080;9.006;2022-12-18T05:20:28;-2.70;95.70
31263;DHT22;17892;52.080;9.006;2022-12-18T05:22:54;-2.70;95.70
31263;DHT22;17892;52.080;9.006;2022-12-18T05:25:20;-2.70;95.90
31263;DHT22;17892;52.080;9.006;2022-12-18T05:27:46;-2.70;95.60
31263;DHT22;17892;52.080;9.006;2022-12-18T05:30:13;-2.70;95.40
31263;DHT22;17892;52.080;9.006;2022-12-18T05:32:39;-2.70;95.70
31263;DHT22;17892;52.080;9.006;2022-12-18T05:35:07;-2.70;95.60
31263;DHT22;17892;52.080;9.006;2022-12-18T05:37:34;-2.70;95.70
31263;DHT22;17892;52.080;9.006;2022-12-18T05:40:00;-2.70;95.70
31263;DHT22;17892;52.080;9.006;2022-12-18T05:42:26;-2.70;95.60
31263;DHT22;17892;52.080;9.006;2022-12-18T05:44:52;-2.70;95.30
31263;DHT22;17892;52.080;9.006;2022-12-18T05:47:18;-2.70;95.60
31263;DHT22;17892;52.080;9.006;2022-12-18T05:49:44;-2.70;95.50
31263;DHT22;17892;52.080;9.006;2022-12-18T05:52:09;-2.70;95.50
31263;DHT22;17892;52.080;9.006;2022-12-18T05:54:35;-2.70;95.50
31263;DHT22;17892;52.080;9.006;2022-12-18T05:57:01;-2.70;95.50
31263;DHT22;17892;52.080;9.006;2022-12-18T05:59:27;-2.70;95.60
31263;DHT22;17892;52.080;9.006;2022-12-18T06:01:52;-2.80;95.20
31263;DHT22;17892;52.080;9.006;2022-12-18T06:04:18;-2.80;95.20
31263;DHT22;17892;52.080;9.006;2022-12-18T06:06:44;-2.80;95.20
31263;DHT22;17892;52.080;9.006;2022-12-18T06:09:10;-2.80;95.00
31263;DHT22;17892;52.080;9.006;2022-12-18T06:11:36;-2.80;95.40
31263;DHT22;17892;52.080;9.006;2022-12-18T06:14:03;-2.80;95.10
31263;DHT22;17892;52.080;9.006;2022-12-18T06:16:31;-2.90;95.30
31263;DHT22;17892;52.080;9.006;2022-12-18T06:19:02;-2.90;95.00
31263;DHT22;17892;52.080;9.006;2022-12-18T06:21:30;-3.00;94.80
31263;DHT22;17892;52.080;9.006;2022-12-18T06:23:57;-3.00;94.70
31263;DHT22;17892;52.080;9.006;2022-12-18T06:26:23;-3.00;94.90
31263;DHT22;17892;52.080;9.006;2022-12-18T06:28:49;-3.10;95.10
31263;DHT22;17892;52.080;9.006;2022-12-18T06:31:15;-3.10;95.30
31263;DHT22;17892;52.080;9.006;2022-12-18T06:33:41;-3.10;95.00
31263;DHT22;17892;52.080;9.006;2022-12-18T06:36:10;-3.10;95.10
31263;DHT22;17892;52.080;9.006;2022-12-18T06:38:39;-3.10;95.30
31263;DHT22;17892;52.080;9.006;2022-12-18T06:41:12;-3.10;95.30
31263;DHT22;17892;52.080;9.006;2022-12-18T06:43:42;-3.10;95.30
31263;DHT22;17892;52.080;9.006;2022-12-18T06:46:08;-3.10;95.50
31263;DHT22;17892;52.080;9.006;2022-12-18T06:48:34;-3.10;95.50
31263;DHT22;17892;52.080;9.006;2022-12-18T06:51:00;-3.00;95.50
31263;DHT22;17892;52.080;9.006;2022-12-18T06:53:26;-3.10;95.60
31263;DHT22;17892;52.080;9.006;2022-12-18T06:55:58;-3.00;95.50
31263;DHT22;17892;52.080;9.006;2022-12-18T06:58:28;-3.00;95.60
31263;DHT22;17892;52.080;9.006;2022-12-18T07:01:06;-3.00;95.10
31263;DHT22;17892;52.080;9.006;2022-12-18T07:03:33;-3.00;95.40
31263;DHT22;17892;52.080;9.006;2022-12-18T07:05:59;-3.00;95.20
31263;DHT22;17892;52.080;9.006;2022-12-18T07:08:25;-2.90;95.20
31263;DHT22;17892;52.080;9.006;2022-12-18T07:10:51;-2.90;95.60
31263;DHT22;17892;52.080;9.006;2022-12-18T07:13:18;-2.90;95.30
31263;DHT22;17892;52.080;9.006;2022-12-18T07:15:44;-2.90;95.40
31263;DHT22;17892;52.080;9.006;2022-12-18T07:18:10;-2.90;95.80
31263;DHT22;17892;52.080;9.006;2022-12-18T07:20:36;-2.90;95.40
31263;DHT22;17892;52.080;9.006;2022-12-18T07:23:03;-2.90;95.20
31263;DHT22;17892;52.080;9.006;2022-12-18T07:25:33;-2.90;95.50
31263;DHT22;17892;52.080;9.006;2022-12-18T07:28:03;-2.90;95.50
31263;DHT22;17892;52.080;9.006;2022-12-18T07:30:29;-2.90;95.10
31263;DHT22;17892;52.080;9.006;2022-12-18T07:32:55;-2.90;95.60
31263;DHT22;17892;52.080;9.006;2022-12-18T07:35:21;-2.90;95.70
31263;DHT22;17892;52.080;9.006;2022-12-18T07:37:46;-2.90;95.50
31263;DHT22;17892;52.080;9.006;2022-12-18T07:40:12;-2.90;95.20
31263;DHT22;17892;52.080;9.006;2022-12-18T07:42:38;-2.90;95.70
31263;DHT22;17892;52.080;9.006;2022-12-18T07:45:04;-2.90;95.60
31263;DHT22;17892;52.080;9.006;2022-12-18T07:47:30;-2.80;95.60
31263;DHT22;17892;52.080;9.006;2022-12-18T07:49:56;-2.80;95.70
31263;DHT22;17892;52.080;9.006;2022-12-18T07:52:22;-2.70;95.80
31263;DHT22;17892;52.080;9.006;2022-12-18T07:54:47;-2.70;96.10
31263;DHT22;17892;52.080;9.006;2022-12-18T07:57:15;-2.60;96.20
31263;DHT22;17892;52.080;9.006;2022-12-18T07:59:42;-2.50;96.10
31263;DHT22;17892;52.080;9.006;2022-12-18T08:02:08;-2.50;96.10
31263;DHT22;17892;52.080;9.006;2022-12-18T08:04:35;-2.50;96.10
31263;DHT22;17892;52.080;9.006;2022-12-18T08:07:01;-2.40;95.60
31263;DHT22;17892;52.080;9.006;2022-12-18T08:09:26;-2.40;95.80
31263;DHT22;17892;52.080;9.006;2022-12-18T08:11:52;-2.40;95.90
31263;DHT22;17892;52.080;9.006;2022-12-18T08:14:18;-2.40;95.60
31263;DHT22;17892;52.080;9.006;2022-12-18T08:16:43;-2.30;95.80
31263;DHT22;17892;52.080;9.006;2022-12-18T08:19:09;-2.30;95.80
31263;DHT22;17892;52.080;9.006;2022-12-18T08:21:35;-2.30;95.70
31263;DHT22;17892;52.080;9.006;2022-12-18T08:24:01;-2.30;96.10
31263;DHT22;17892;52.080;9.006;2022-12-18T08:26:29;-2.20;95.70
31263;DHT22;17892;52.080;9.006;2022-12-18T08:28:57;-2.10;96.20
31263;DHT22;17892;52.080;9.006;2022-12-18T08:31:25;-2.10;95.60
31263;DHT22;17892;52.080;9.006;2022-12-18T08:33:52;-2.10;95.50
31263;DHT22;17892;52.080;9.006;2022-12-18T08:36:19;-1.90;95.80
31263;DHT22;17892;52.080;9.006;2022-12-18T08:38:46;-1.80;96.10
31263;DHT22;17892;52.080;9.006;2022-12-18T08:41:14;-1.70;95.90
31263;DHT22;17892;52.080;9.006;2022-12-18T08:43:40;-1.50;94.60
31263;DHT22;17892;52.080;9.006;2022-12-18T08:46:26;-1.30;96.00
31263;DHT22;17892;52.080;9.006;2022-12-18T08:48:56;-1.20;95.80
31263;DHT22;17892;52.080;9.006;2022-12-18T08:51:22;-1.00;96.20
31263;DHT22;17892;52.080;9.006;2022-12-18T08:53:48;-0.90;95.30
31263;DHT22;17892;52.080;9.006;2022-12-18T08:56:14;-0.70;96.10
31263;DHT22;17892;52.080;9.006;2022-12-18T08:58:41;-0.60;95.80
31263;DHT22;17892;52.080;9.006;2022-12-18T09:01:08;-0.60;95.50
31263;DHT22;17892;52.080;9.006;2022-12-18T09:03:35;-0.50;95.60
31263;DHT22;17892;52.080;9.006;2022-12-18T09:06:02;-0.40;94.70
31263;DHT22;17892;52.080;9.006;2022-12-18T09:08:28;-0.40;95.10
31263;DHT22;17892;52.080;9.006;2022-12-18T09:10:54;-0.40;95.00
31263;DHT22;17892;52.080;9.006;2022-12-18T09:13:20;-0.40;94.90
31263;DHT22;17892;52.080;9.006;2022-12-18T09:15:52;-0.40;95.10
31263;DHT22;17892;52.080;9.006;2022-12-18T09:18:21;-0.40;93.60
31263;DHT22;17892;52.080;9.006;2022-12-18T09:20:48;-0.40;94.90
31263;DHT22;17892;52.080;9.006;2022-12-18T09:23:15;-0.40;94.40
31263;DHT22;17892;52.080;9.006;2022-12-18T09:25:41;-0.40;94.00
31263;DHT22;17892;52.080;9.006;2022-12-18T09:28:15;-0.40;94.70
31263;DHT22;17892;52.080;9.006;2022-12-18T09:30:48;-0.30;94.40
31263;DHT22;17892;52.080;9.006;2022-12-18T09:33:15;-0.30;92.30
31263;DHT22;17892;52.080;9.006;2022-12-18T09:35:42;-0.30;92.90
31263;DHT22;17892;52.080;9.006;2022-12-18T09:38:13;-0.30;94.40
31263;DHT22;17892;52.080;9.006;2022-12-18T09:40:52;-0.30;92.60
31263;DHT22;17892;52.080;9.006;2022-12-18T09:46:06;-0.30;94.20
31263;DHT22;17892;52.080;9.006;2022-12-18T09:48:36;-0.30;93.70
31263;DHT22;17892;52.080;9.006;2022-12-18T09:51:13;-0.20;94.50
31263;DHT22;17892;52.080;9.006;2022-12-18T09:53:45;-0.20;94.40
31263;DHT22;17892;52.080;9.006;2022-12-18T09:56:17;-0.20;93.10
31263;DHT22;17892;52.080;9.006;2022-12-18T09:58:57;-0.20;94.50
31263;DHT22;17892;52.080;9.006;2022-12-18T10:01:25;-0.10;94.10
31263;DHT22;17892;52.080;9.006;2022-12-18T10:03:53;-0.10;95.20
31263;DHT22;17892;52.080;9.006;2022-12-18T10:06:32;-0.10;95.00
31263;DHT22;17892;52.080;9.006;2022-12-18T10:12:21;0.00;94.80
31263;DHT22;17892;52.080;9.006;2022-12-18T10:15:30;0.00;92.10
31263;DHT22;17892;52.080;9.006;2022-12-18T10:21:21;0.00;92.40
31263;DHT22;17892;52.080;9.006;2022-12-18T10:26:28;0.10;92.80
31263;DHT22;17892;52.080;9.006;2022-12-18T10:28:54;0.10;94.20
31263;DHT22;17892;52.080;9.006;2022-12-18T10:31:23;0.20;94.40
31263;DHT22;17892;52.080;9.006;2022-12-18T10:33:49;0.20;93.50
31263;DHT22;17892;52.080;9.006;2022-12-18T10:36:15;0.20;92.20
31263;DHT22;17892;52.080;9.006;2022-12-18T10:38:41;0.20;92.90
31263;DHT22;17892;52.080;9.006;2022-12-18T10:44:18;0.10;90.90
31263;DHT22;17892;52.080;9.006;2022-12-18T10:46:55;0.10;89.80
31263;DHT22;17892;52.080;9.006;2022-12-18T10:49:31;0.10;90.50
31263;DHT22;17892;52.080;9.006;2022-12-18T10:54:59;0.20;91.60
31263;DHT22;17892;52.080;9.006;2022-12-18T10:57:32;0.20;91.20
31263;DHT22;17892;52.080;9.006;2022-12-18T11:00:31;0.30;90.70
31263;DHT22;17892;52.080;9.006;2022-12-18T11:02:57;0.40;92.60
31263;DHT22;17892;52.080;9.006;2022-12-18T11:05:29;0.40;93.10
31263;DHT22;17892;52.080;9.006;2022-12-18T11:07:58;0.50;91.90
31263;DHT22;17892;52.080;9.006;2022-12-18T11:10:31;0.60;91.80
31263;DHT22;17892;52.080;9.006;2022-12-18T11:15:47;0.70;90.50
31263;DHT22;17892;52.080;9.006;2022-12-18T11:18:22;0.70;91.60
31263;DHT22;17892;52.080;9.006;2022-12-18T11:20:58;0.80;90.90
31263;DHT22;17892;52.080;9.006;2022-12-18T11:23:26;0.80;91.10
31263;DHT22;17892;52.080;9.006;2022-12-18T11:25:55;0.80;92.10
31263;DHT22;17892;52.080;9.006;2022-12-18T11:34:28;1.00;90.60
31263;DHT22;17892;52.080;9.006;2022-12-18T11:36:58;1.00;90.00
31263;DHT22;17892;52.080;9.006;2022-12-18T11:42:20;1.00;90.10
31263;DHT22;17892;52.080;9.006;2022-12-18T11:47:38;0.90;91.20
31263;DHT22;17892;52.080;9.006;2022-12-18T11:50:30;0.90;91.00
31263;DHT22;17892;52.080;9.006;2022-12-18T11:52:59;0.90;90.50
31263;DHT22;17892;52.080;9.006;2022-12-18T12:01:18;1.00;90.80
31263;DHT22;17892;52.080;9.006;2022-12-18T12:07:34;1.10;92.50
31263;DHT22;17892;52.080;9.006;2022-12-18T12:10:42;1.20;90.80
31263;DHT22;17892;52.080;9.006;2022-12-18T12:27:58;1.30;91.50
31263;DHT22;17892;52.080;9.006;2022-12-18T12:34:01;1.40;91.10
31263;DHT22;17892;52.080;9.006;2022-12-18T12:39:42;1.40;92.60
31263;DHT22;17892;52.080;9.006;2022-12-18T12:42:38;1.50;92.10
31263;DHT22;17892;52.080;9.006;2022-12-18T12:45:36;1.50;90.70
31263;DHT22;17892;52.080;9.006;2022-12-18T12:48:07;1.50;91.30
31263;DHT22;17892;52.080;9.006;2022-12-18T12:50:41;1.60;90.60
31263;DHT22;17892;52.080;9.006;2022-12-18T12:53:09;1.60;90.40
31263;DHT22;17892;52.080;9.006;2022-12-18T12:55:43;1.60;93.00
31263;DHT22;17892;52.080;9.006;2022-12-18T13:01:13;1.70;90.30
31263;DHT22;17892;52.080;9.006;2022-12-18T13:03:56;1.70;90.60
31263;DHT22;17892;52.080;9.006;2022-12-18T13:06:46;1.80;91.10
31263;DHT22;17892;52.080;9.006;2022-12-18T13:09:16;1.80;88.40
31263;DHT22;17892;52.080;9.006;2022-12-18T13:11:46;1.80;92.00
31263;DHT22;17892;52.080;9.006;2022-12-18T13:14:35;1.80;92.00
31263;DHT22;17892;52.080;9.006;2022-12-18T13:22:37;1.90;90.80
31263;DHT22;17892;52.080;9.006;2022-12-18T13:27:59;1.90;87.00
31263;DHT22;17892;52.080;9.006;2022-12-18T13:38:43;1.80;90.70
31263;DHT22;17892;52.080;9.006;2022-12-18T13:44:10;1.80;89.90
31263;DHT22;17892;52.080;9.006;2022-12-18T13:46:45;1.80;84.40
31263;DHT22;17892;52.080;9.006;2022-12-18T13:49:25;1.80;89.60
31263;DHT22;17892;52.080;9.006;2022-12-18T13:51:55;1.80;90.40
31263;DHT22;17892;52.080;9.006;2022-12-18T13:54:38;1.80;91.50
31263;DHT22;17892;52.080;9.006;2022-12-18T13:57:12;1.80;88.80
31263;DHT22;17892;52.080;9.006;2022-12-18T13:59:58;1.80;90.10
31263;DHT22;17892;52.080;9.006;2022-12-18T14:02:26;1.80;88.60
31263;DHT22;17892;52.080;9.006;2022-12-18T14:04:53;1.80;90.50
31263;DHT22;17892;52.080;9.006;2022-12-18T14:07:24;1.80;89.00
31263;DHT22;17892;52.080;9.006;2022-12-18T14:10:00;1.80;88.50
31263;DHT22;17892;52.080;9.006;2022-12-18T14:12:29;1.70;84.20
31263;DHT22;17892;52.080;9.006;2022-12-18T14:17:53;1.80;87.00
31263;DHT22;17892;52.080;9.006;2022-12-18T14:20:21;1.80;89.40
31263;DHT22;17892;52.080;9.006;2022-12-18T14:22:49;1.80;89.30
31263;DHT22;17892;52.080;9.006;2022-12-18T14:25:19;1.80;86.30
31263;DHT22;17892;52.080;9.006;2022-12-18T14:27:51;1.80;87.00
31263;DHT22;17892;52.080;9.006;2022-12-18T14:33:09;1.80;85.20
31263;DHT22;17892;52.080;9.006;2022-12-18T14:35:41;1.70;82.40
31263;DHT22;17892;52.080;9.006;2022-12-18T14:41:11;1.80;87.80
31263;DHT22;17892;52.080;9.006;2022-12-18T14:43:40;1.70;85.40
31263;DHT22;17892;52.080;9.006;2022-12-18T14:46:28;1.70;85.50
31263;DHT22;17892;52.080;9.006;2022-12-18T14:49:17;1.70;83.10
31263;DHT22;17892;52.080;9.006;2022-12-18T14:51:51;1.70;88.50
31263;DHT22;17892;52.080;9.006;2022-12-18T14:54:19;1.60;88.60
31263;DHT22;17892;52.080;9.006;2022-12-18T14:56:47;1.60;83.00
31263;DHT22;17892;52.080;9.006;2022-12-18T14:59:20;1.60;90.60
31263;DHT22;17892;52.080;9.006;2022-12-18T15:07:05;1.60;80.20
31263;DHT22;17892;52.080;9.006;2022-12-18T15:09:35;1.60;86.80
31263;DHT22;17892;52.080;9.006;2022-12-18T15:12:02;1.60;89.60
31263;DHT22;17892;52.080;9.006;2022-12-18T15:17:06;1.50;83.10
31263;DHT22;17892;52.080;9.006;2022-12-18T15:19:46;1.50;87.70
31263;DHT22;17892;52.080;9.006;2022-12-18T15:22:34;1.50;91.10
31263;DHT22;17892;52.080;9.006;2022-12-18T15:25:02;1.50;81.90
31263;DHT22;17892;52.080;9.006;2022-12-18T15:27:36;1.40;86.10
31263;DHT22;17892;52.080;9.006;2022-12-18T15:32:36;1.40;85.10
31263;DHT22;17892;52.080;9.006;2022-12-18T15:35:23;1.40;88.70
31263;DHT22;17892;52.080;9.006;2022-12-18T15:37:51;1.40;87.20
31263;DHT22;17892;52.080;9.006;2022-12-18T15:40:20;1.40;90.70
31263;DHT22;17892;52.080;9.006;2022-12-18T15:42:48;1.40;90.40
31263;DHT22;17892;52.080;9.006;2022-12-18T15:45:33;1.40;88.70
31263;DHT22;17892;52.080;9.006;2022-12-18T15:47:59;1.40;90.10
31263;DHT22;17892;52.080;9.006;2022-12-18T15:50:25;1.40;87.20
31263;DHT22;17892;52.080;9.006;2022-12-18T15:52:52;1.30;88.50
31263;DHT22;17892;52.080;9.006;2022-12-18T15:55:21;1.30;83.50
31263;DHT22;17892;52.080;9.006;2022-12-18T15:58:08;1.30;83.40
31263;DHT22;17892;52.080;9.006;2022-12-18T16:00:37;1.30;87.20
31263;DHT22;17892;52.080;9.006;2022-12-18T16:03:04;1.30;89.20
31263;DHT22;17892;52.080;9.006;2022-12-18T16:05:31;1.30;87.30
31263;DHT22;17892;52.080;9.006;2022-12-18T16:07:57;1.30;87.80
31263;DHT22;17892;52.080;9.006;2022-12-18T16:10:24;1.30;87.20
31263;DHT22;17892;52.080;9.006;2022-12-18T16:12:50;1.30;90.10
31263;DHT22;17892;52.080;9.006;2022-12-18T16:15:16;1.30;86.90
31263;DHT22;17892;52.080;9.006;2022-12-18T16:17:43;1.20;88.00
31263;DHT22;17892;52.080;9.006;2022-12-18T16:20:14;1.30;90.40
31263;DHT22;17892;52.080;9.006;2022-12-18T16:22:42;1.30;86.80
31263;DHT22;17892;52.080;9.006;2022-12-18T16:25:24;1.20;90.80
31263;DHT22;17892;52.080;9.006;2022-12-18T16:27:52;1.20;81.50
31263;DHT22;17892;52.080;9.006;2022-12-18T16:30:25;1.20;82.50
31263;DHT22;17892;52.080;9.006;2022-12-18T16:32:53;1.20;87.90
31263;DHT22;17892;52.080;9.006;2022-12-18T16:35:20;1.20;85.50
31263;DHT22;17892;52.080;9.006;2022-12-18T16:37:46;1.20;87.00
31263;DHT22;17892;52.080;9.006;2022-12-18T16:40:14;1.20;90.50
31263;DHT22;17892;52.080;9.006;2022-12-18T16:42:43;1.20;87.50
31263;DHT22;17892;52.080;9.006;2022-12-18T16:45:13;1.20;85.30
31263;DHT22;17892;52.080;9.006;2022-12-18T16:47:41;1.10;88.60
31263;DHT22;17892;52.080;9.006;2022-12-18T16:50:07;1.10;86.50
31263;DHT22;17892;52.080;9.006;2022-12-18T16:52:34;1.10;87.90
31263;DHT22;17892;52.080;9.006;2022-12-18T16:55:00;1.20;88.20
31263;DHT22;17892;52.080;9.006;2022-12-18T16:57:26;1.20;89.10
31263;DHT22;17892;52.080;9.006;2022-12-18T16:59:52;1.20;87.10
31263;DHT22;17892;52.080;9.006;2022-12-18T17:02:19;1.10;86.00
31263;DHT22;17892;52.080;9.006;2022-12-18T17:04:49;1.20;86.50
31263;DHT22;17892;52.080;9.006;2022-12-18T17:07:15;1.20;89.20
31263;DHT22;17892;52.080;9.006;2022-12-18T17:09:41;1.20;87.50
31263;DHT22;17892;52.080;9.006;2022-12-18T17:12:08;1.20;85.50
31263;DHT22;17892;52.080;9.006;2022-12-18T17:14:35;1.20;85.00
31263;DHT22;17892;52.080;9.006;2022-12-18T17:17:01;1.20;89.50
31263;DHT22;17892;52.080;9.006;2022-12-18T17:19:27;1.20;90.80
31263;DHT22;17892;52.080;9.006;2022-12-18T17:21:54;1.20;90.40
31263;DHT22;17892;52.080;9.006;2022-12-18T17:24:20;1.20;90.30
31263;DHT22;17892;52.080;9.006;2022-12-18T17:26:46;1.20;90.30
31263;DHT22;17892;52.080;9.006;2022-12-18T17:29:14;1.20;90.80
31263;DHT22;17892;52.080;9.006;2022-12-18T17:31:42;1.20;90.30
31263;DHT22;17892;52.080;9.006;2022-12-18T17:34:10;1.10;91.20
31263;DHT22;17892;52.080;9.006;2022-12-18T17:36:36;1.10;90.00
31263;DHT22;17892;52.080;9.006;2022-12-18T17:39:04;1.10;89.10
31263;DHT22;17892;52.080;9.006;2022-12-18T17:41:31;1.00;90.70
31263;DHT22;17892;52.080;9.006;2022-12-18T17:43:59;1.10;90.00
31263;DHT22;17892;52.080;9.006;2022-12-18T17:46:28;1.10;88.00
31263;DHT22;17892;52.080;9.006;2022-12-18T17:48:55;1.00;89.00
31263;DHT22;17892;52.080;9.006;2022-12-18T17:51:25;1.00;87.40
31263;DHT22;17892;52.080;9.006;2022-12-18T17:53:51;1.00;84.50
31263;DHT22;17892;52.080;9.006;2022-12-18T17:56:20;1.00;87.50
31263;DHT22;17892;52.080;9.006;2022-12-18T17:58:47;1.00;89.80
31263;DHT22;17892;52.080;9.006;2022-12-18T18:01:17;1.00;91.00
31263;DHT22;17892;52.080;9.006;2022-12-18T18:03:47;1.00;91.30